sensor_id;sensor_type;location;lat;lon;timestamp;P1;durP1;ratioP1;P2;durP2;ratioP2
32611;SDS011;19030;49.478;8.986;2024-03-08T00:01:12;30.58;;;21.85;;
32611;SDS011;19030;49.478;8.986;2024-03-08T00:03:12;34.92;;;23.10;;
32611;SDS011;19030;49.478;8.986;2024-03-08T00:05:13;29.58;;;19.98;;
32611;SDS011;19030;49.478;8.986;2024-03-08T00:07:14;30.85;;;20.27;;
32611;SDS011;19030;49.478;8.986;2024-03-08T00:09:15;32.58;;;22.00;;
32611;SDS011;19030;49.478;8.986;2024-03-08T00:11:15;34.15;;;21.25;;
32611;SDS011;19030;49.478;8.986;2024-03-08T00:13:16;27.92;;;19.50;;
32611;SDS011;19030;49.478;8.986;2024-03-08T00:15:17;38.40;;;22.23;;
32611;SDS011;19030;49.478;8.986;2024-03-08T00:17:17;31.13;;;21.75;;
32611;SDS011;19030;49.478;8.986;2024-03-08T00:19:18;33.75;;;23.15;;
32611;SDS011;19030;49.478;8.986;2024-03-08T00:21:18;33.05;;;23.73;;
32611;SDS011;19030;49.478;8.986;2024-03-08T00:23:19;33.65;;;23.23;;
32611;SDS011;19030;49.478;8.986;2024-03-08T00:25:20;34.58;;;23.05;;
32611;SDS011;19030;49.478;8.986;2024-03-08T00:27:20;33.78;;;22.35;;
32611;SDS011;19030;49.478;8.986;2024-03-08T00:29:21;38.03;;;23.90;;
32611;SDS011;19030;49.478;8.986;2024-03-08T00:31:22;33.35;;;22.33;;
32611;SDS011;19030;49.478;8.986;2024-03-08T00:33:22;41.10;;;23.00;;
32611;SDS011;19030;49.478;8.986;2024-03-08T00:35:23;35.72;;;23.42;;
32611;SDS011;19030;49.478;8.986;2024-03-08T00:37:23;33.47;;;22.17;;
32611;SDS011;19030;49.478;8.986;2024-03-08T00:39:27;32.85;;;21.60;;
32611;SDS011;19030;49.478;8.986;2024-03-08T00:41:28;35.47;;;22.65;;
32611;SDS011;19030;49.478;8.986;2024-03-08T00:43:28;34.42;;;21.33;;
32611;SDS011;19030;49.478;8.986;2024-03-08T00:45:30;32.38;;;21.15;;
32611;SDS011;19030;49.478;8.986;2024-03-08T00:47:30;37.30;;;22.60;;
32611;SDS011;19030;49.478;8.986;2024-03-08T00:49:31;37.55;;;22.42;;
32611;SDS011;19030;49.478;8.986;2024-03-08T00:51:31;34.00;;;20.38;;
32611;SDS011;19030;49.478;8.986;2024-03-08T00:53:32;33.17;;;20.90;;
32611;SDS011;19030;49.478;8.986;2024-03-08T00:55:33;32.00;;;20.00;;
32611;SDS011;19030;49.478;8.986;2024-03-08T00:57:34;34.35;;;21.42;;
32611;SDS011;19030;49.478;8.986;2024-03-08T00:59:37;36.38;;;21.15;;
32611;SDS011;19030;49.478;8.986;2024-03-08T01:01:38;31.15;;;20.17;;
32611;SDS011;19030;49.478;8.986;2024-03-08T01:03:39;32.47;;;20.33;;
32611;SDS011;19030;49.478;8.986;2024-03-08T01:05:40;32.50;;;19.55;;
32611;SDS011;19030;49.478;8.986;2024-03-08T01:07:40;34.60;;;19.45;;
32611;SDS011;19030;49.478;8.986;2024-03-08T01:09:41;34.53;;;21.20;;
32611;SDS011;19030;49.478;8.986;2024-03-08T01:11:42;33.55;;;21.30;;
32611;SDS011;19030;49.478;8.986;2024-03-08T01:13:42;34.90;;;20.70;;
32611;SDS011;19030;49.478;8.986;2024-03-08T01:15:43;34.67;;;20.23;;
32611;SDS011;19030;49.478;8.986;2024-03-08T01:17:44;32.38;;;19.65;;
32611;SDS011;19030;49.478;8.986;2024-03-08T01:19:44;33.15;;;19.60;;
32611;SDS011;19030;49.478;8.986;2024-03-08T01:21:45;34.90;;;19.30;;
32611;SDS011;19030;49.478;8.986;2024-03-08T01:23:46;32.25;;;19.85;;
32611;SDS011;19030;49.478;8.986;2024-03-08T01:25:47;33.28;;;20.25;;
32611;SDS011;19030;49.478;8.986;2024-03-08T01:27:49;33.42;;;19.88;;
32611;SDS011;19030;49.478;8.986;2024-03-08T01:29:49;31.65;;;20.42;;
32611;SDS011;19030;49.478;8.986;2024-03-08T01:31:50;35.88;;;20.52;;
32611;SDS011;19030;49.478;8.986;2024-03-08T01:33:52;36.85;;;19.55;;
32611;SDS011;19030;49.478;8.986;2024-03-08T01:35:53;32.90;;;19.08;;
32611;SDS011;19030;49.478;8.986;2024-03-08T01:37:54;34.17;;;21.25;;
32611;SDS011;19030;49.478;8.986;2024-03-08T01:39:54;35.38;;;19.27;;
32611;SDS011;19030;49.478;8.986;2024-03-08T01:41:55;34.42;;;19.42;;
32611;SDS011;19030;49.478;8.986;2024-03-08T01:43:55;33.83;;;19.48;;
32611;SDS011;19030;49.478;8.986;2024-03-08T01:45:57;36.10;;;21.95;;
32611;SDS011;19030;49.478;8.986;2024-03-08T01:48:01;35.50;;;20.42;;
32611;SDS011;19030;49.478;8.986;2024-03-08T01:50:02;30.05;;;18.67;;
32611;SDS011;19030;49.478;8.986;2024-03-08T01:52:06;36.25;;;20.30;;
32611;SDS011;19030;49.478;8.986;2024-03-08T01:54:07;32.22;;;18.75;;
32611;SDS011;19030;49.478;8.986;2024-03-08T01:56:10;34.35;;;19.90;;
32611;SDS011;19030;49.478;8.986;2024-03-08T01:58:12;33.65;;;19.00;;
32611;SDS011;19030;49.478;8.986;2024-03-08T02:00:15;34.85;;;19.95;;
32611;SDS011;19030;49.478;8.986;2024-03-08T02:02:16;33.13;;;19.88;;
32611;SDS011;19030;49.478;8.986;2024-03-08T02:04:17;36.75;;;21.45;;
32611;SDS011;19030;49.478;8.986;2024-03-08T02:06:18;38.10;;;20.55;;
32611;SDS011;19030;49.478;8.986;2024-03-08T02:08:19;29.38;;;19.20;;
32611;SDS011;19030;49.478;8.986;2024-03-08T02:10:22;32.97;;;19.60;;
32611;SDS011;19030;49.478;8.986;2024-03-08T02:12:23;36.20;;;20.38;;
32611;SDS011;19030;49.478;8.986;2024-03-08T02:14:23;34.30;;;20.98;;
32611;SDS011;19030;49.478;8.986;2024-03-08T02:16:24;35.05;;;21.90;;
32611;SDS011;19030;49.478;8.986;2024-03-08T02:18:25;35.63;;;21.10;;
32611;SDS011;19030;49.478;8.986;2024-03-08T02:20:28;33.53;;;19.42;;
32611;SDS011;19030;49.478;8.986;2024-03-08T02:22:29;33.88;;;21.35;;
32611;SDS011;19030;49.478;8.986;2024-03-08T02:24:32;34.13;;;20.08;;
32611;SDS011;19030;49.478;8.986;2024-03-08T02:26:33;33.17;;;20.02;;
32611;SDS011;19030;49.478;8.986;2024-03-08T02:28:34;37.90;;;22.67;;
32611;SDS011;19030;49.478;8.986;2024-03-08T02:30:34;39.90;;;22.00;;
32611;SDS011;19030;49.478;8.986;2024-03-08T02:32:35;32.35;;;19.20;;
32611;SDS011;19030;49.478;8.986;2024-03-08T02:34:36;32.92;;;18.60;;
32611;SDS011;19030;49.478;8.986;2024-03-08T02:36:37;35.97;;;21.60;;
32611;SDS011;19030;49.478;8.986;2024-03-08T02:38:37;36.45;;;21.15;;
32611;SDS011;19030;49.478;8.986;2024-03-08T02:40:38;33.83;;;18.52;;
32611;SDS011;19030;49.478;8.986;2024-03-08T02:42:38;35.30;;;18.52;;
32611;SDS011;19030;49.478;8.986;2024-03-08T02:44:42;33.00;;;19.10;;
32611;SDS011;19030;49.478;8.986;2024-03-08T02:46:44;32.42;;;19.60;;
32611;SDS011;19030;49.478;8.986;2024-03-08T02:48:45;34.15;;;20.55;;
32611;SDS011;19030;49.478;8.986;2024-03-08T02:50:46;34.10;;;20.75;;
32611;SDS011;19030;49.478;8.986;2024-03-08T02:52:47;34.97;;;20.60;;
32611;SDS011;19030;49.478;8.986;2024-03-08T02:54:48;37.17;;;21.48;;
32611;SDS011;19030;49.478;8.986;2024-03-08T02:56:49;37.03;;;22.00;;
32611;SDS011;19030;49.478;8.986;2024-03-08T02:58:51;32.40;;;19.33;;
32611;SDS011;19030;49.478;8.986;2024-03-08T03:00:51;32.45;;;19.38;;
32611;SDS011;19030;49.478;8.986;2024-03-08T03:02:52;32.40;;;19.27;;
32611;SDS011;19030;49.478;8.986;2024-03-08T03:04:53;33.85;;;19.30;;
32611;SDS011;19030;49.478;8.986;2024-03-08T03:06:55;36.50;;;19.80;;
32611;SDS011;19030;49.478;8.986;2024-03-08T03:08:57;32.72;;;18.55;;
32611;SDS011;19030;49.478;8.986;2024-03-08T03:10:57;34.45;;;17.92;;
32611;SDS011;19030;49.478;8.986;2024-03-08T03:12:58;33.92;;;18.67;;
32611;SDS011;19030;49.478;8.986;2024-03-08T03:14:58;33.20;;;17.52;;
32611;SDS011;19030;49.478;8.986;2024-03-08T03:16:59;31.73;;;17.80;;
32611;SDS011;19030;49.478;8.986;2024-03-08T03:19:00;33.08;;;18.13;;
32611;SDS011;19030;49.478;8.986;2024-03-08T03:21:01;35.50;;;18.80;;
32611;SDS011;19030;49.478;8.986;2024-03-08T03:23:07;36.40;;;19.23;;
32611;SDS011;19030;49.478;8.986;2024-03-08T03:25:08;36.72;;;18.48;;
32611;SDS011;19030;49.478;8.986;2024-03-08T03:27:09;32.83;;;19.20;;
32611;SDS011;19030;49.478;8.986;2024-03-08T03:29:13;35.25;;;18.73;;
32611;SDS011;19030;49.478;8.986;2024-03-08T03:31:14;31.88;;;19.08;;
32611;SDS011;19030;49.478;8.986;2024-03-08T03:33:14;37.30;;;19.88;;
32611;SDS011;19030;49.478;8.986;2024-03-08T03:35:17;34.58;;;18.08;;
32611;SDS011;19030;49.478;8.986;2024-03-08T03:37:19;34.33;;;18.25;;
32611;SDS011;19030;49.478;8.986;2024-03-08T03:39:19;36.05;;;18.92;;
32611;SDS011;19030;49.478;8.986;2024-03-08T03:41:22;34.03;;;17.90;;
32611;SDS011;19030;49.478;8.986;2024-03-08T03:43:23;36.80;;;19.13;;
32611;SDS011;19030;49.478;8.986;2024-03-08T03:45:25;38.63;;;19.30;;
32611;SDS011;19030;49.478;8.986;2024-03-08T03:47:26;38.83;;;19.90;;
32611;SDS011;19030;49.478;8.986;2024-03-08T03:49:27;38.60;;;20.30;;
32611;SDS011;19030;49.478;8.986;2024-03-08T03:51:29;32.50;;;18.58;;
32611;SDS011;19030;49.478;8.986;2024-03-08T03:53:30;36.95;;;19.42;;
32611;SDS011;19030;49.478;8.986;2024-03-08T03:55:30;32.63;;;18.55;;
32611;SDS011;19030;49.478;8.986;2024-03-08T03:57:31;35.67;;;18.58;;
32611;SDS011;19030;49.478;8.986;2024-03-08T03:59:31;37.20;;;19.17;;
32611;SDS011;19030;49.478;8.986;2024-03-08T04:01:32;36.58;;;19.13;;
32611;SDS011;19030;49.478;8.986;2024-03-08T04:03:34;37.78;;;19.60;;
32611;SDS011;19030;49.478;8.986;2024-03-08T04:05:34;36.38;;;19.70;;
32611;SDS011;19030;49.478;8.986;2024-03-08T04:07:35;32.60;;;18.05;;
32611;SDS011;19030;49.478;8.986;2024-03-08T04:09:36;33.28;;;17.90;;
32611;SDS011;19030;49.478;8.986;2024-03-08T04:11:36;40.28;;;22.15;;
32611;SDS011;19030;49.478;8.986;2024-03-08T04:13:37;38.85;;;22.27;;
32611;SDS011;19030;49.478;8.986;2024-03-08T04:15:37;34.50;;;17.73;;
32611;SDS011;19030;49.478;8.986;2024-03-08T04:17:38;52.22;;;27.20;;
32611;SDS011;19030;49.478;8.986;2024-03-08T04:19:38;36.78;;;20.23;;
32611;SDS011;19030;49.478;8.986;2024-03-08T04:21:39;35.53;;;19.63;;
32611;SDS011;19030;49.478;8.986;2024-03-08T04:23:40;35.63;;;19.50;;
32611;SDS011;19030;49.478;8.986;2024-03-08T04:25:40;39.30;;;19.95;;
32611;SDS011;19030;49.478;8.986;2024-03-08T04:27:42;39.80;;;19.67;;
32611;SDS011;19030;49.478;8.986;2024-03-08T04:29:43;36.05;;;19.17;;
32611;SDS011;19030;49.478;8.986;2024-03-08T04:31:43;34.42;;;19.65;;
32611;SDS011;19030;49.478;8.986;2024-03-08T04:33:44;37.00;;;20.83;;
32611;SDS011;19030;49.478;8.986;2024-03-08T04:35:45;41.05;;;21.52;;
32611;SDS011;19030;49.478;8.986;2024-03-08T04:37:46;34.20;;;19.00;;
32611;SDS011;19030;49.478;8.986;2024-03-08T04:39:46;39.03;;;21.38;;
32611;SDS011;19030;49.478;8.986;2024-03-08T04:41:47;39.03;;;20.77;;
32611;SDS011;19030;49.478;8.986;2024-03-08T04:43:49;45.80;;;24.65;;
32611;SDS011;19030;49.478;8.986;2024-03-08T04:45:49;42.17;;;23.42;;
32611;SDS011;19030;49.478;8.986;2024-03-08T04:47:50;37.83;;;21.13;;
32611;SDS011;19030;49.478;8.986;2024-03-08T04:49:52;91.93;;;48.05;;
32611;SDS011;19030;49.478;8.986;2024-03-08T04:51:53;52.00;;;29.17;;
32611;SDS011;19030;49.478;8.986;2024-03-08T04:53:53;44.45;;;22.90;;
32611;SDS011;19030;49.478;8.986;2024-03-08T04:55:54;39.70;;;22.40;;
32611;SDS011;19030;49.478;8.986;2024-03-08T04:57:57;40.05;;;22.05;;
32611;SDS011;19030;49.478;8.986;2024-03-08T04:59:58;35.78;;;20.33;;
32611;SDS011;19030;49.478;8.986;2024-03-08T05:01:59;40.65;;;20.88;;
32611;SDS011;19030;49.478;8.986;2024-03-08T05:03:59;42.88;;;22.63;;
32611;SDS011;19030;49.478;8.986;2024-03-08T05:06:00;45.30;;;23.55;;
32611;SDS011;19030;49.478;8.986;2024-03-08T05:08:01;46.90;;;23.45;;
32611;SDS011;19030;49.478;8.986;2024-03-08T05:10:01;39.60;;;20.42;;
32611;SDS011;19030;49.478;8.986;2024-03-08T05:12:03;49.85;;;27.23;;
32611;SDS011;19030;49.478;8.986;2024-03-08T05:14:04;45.70;;;25.52;;
32611;SDS011;19030;49.478;8.986;2024-03-08T05:16:04;39.50;;;23.15;;
32611;SDS011;19030;49.478;8.986;2024-03-08T05:18:05;41.72;;;23.42;;
32611;SDS011;19030;49.478;8.986;2024-03-08T05:20:06;48.00;;;25.45;;
32611;SDS011;19030;49.478;8.986;2024-03-08T05:22:12;46.10;;;24.77;;
32611;SDS011;19030;49.478;8.986;2024-03-08T05:24:13;40.92;;;21.85;;
32611;SDS011;19030;49.478;8.986;2024-03-08T05:26:17;35.95;;;20.92;;
32611;SDS011;19030;49.478;8.986;2024-03-08T05:28:18;41.25;;;20.65;;
32611;SDS011;19030;49.478;8.986;2024-03-08T05:30:20;36.88;;;21.58;;
32611;SDS011;19030;49.478;8.986;2024-03-08T05:32:21;44.05;;;21.58;;
32611;SDS011;19030;49.478;8.986;2024-03-08T05:34:22;43.72;;;22.17;;
32611;SDS011;19030;49.478;8.986;2024-03-08T05:36:23;39.10;;;22.33;;
32611;SDS011;19030;49.478;8.986;2024-03-08T05:38:23;38.83;;;20.77;;
32611;SDS011;19030;49.478;8.986;2024-03-08T05:40:24;40.13;;;22.40;;
32611;SDS011;19030;49.478;8.986;2024-03-08T05:42:25;39.88;;;19.83;;
32611;SDS011;19030;49.478;8.986;2024-03-08T05:44:25;36.78;;;19.63;;
32611;SDS011;19030;49.478;8.986;2024-03-08T05:46:28;39.25;;;20.17;;
32611;SDS011;19030;49.478;8.986;2024-03-08T05:48:29;42.55;;;21.60;;
32611;SDS011;19030;49.478;8.986;2024-03-08T05:50:29;39.53;;;21.83;;
32611;SDS011;19030;49.478;8.986;2024-03-08T05:52:30;40.03;;;21.50;;
32611;SDS011;19030;49.478;8.986;2024-03-08T05:54:31;42.38;;;21.88;;
32611;SDS011;19030;49.478;8.986;2024-03-08T05:56:33;41.60;;;23.17;;
32611;SDS011;19030;49.478;8.986;2024-03-08T05:58:33;47.05;;;26.30;;
32611;SDS011;19030;49.478;8.986;2024-03-08T06:00:34;50.88;;;29.77;;
32611;SDS011;19030;49.478;8.986;2024-03-08T06:02:36;48.75;;;30.27;;
32611;SDS011;19030;49.478;8.986;2024-03-08T06:04:40;46.15;;;27.17;;
32611;SDS011;19030;49.478;8.986;2024-03-08T06:06:42;43.58;;;23.73;;
32611;SDS011;19030;49.478;8.986;2024-03-08T06:08:43;42.33;;;22.38;;
32611;SDS011;19030;49.478;8.986;2024-03-08T06:10:43;38.13;;;21.73;;
32611;SDS011;19030;49.478;8.986;2024-03-08T06:12:44;43.63;;;21.60;;
32611;SDS011;19030;49.478;8.986;2024-03-08T06:14:45;39.28;;;20.10;;
32611;SDS011;19030;49.478;8.986;2024-03-08T06:16:46;43.78;;;22.60;;
32611;SDS011;19030;49.478;8.986;2024-03-08T06:18:47;41.95;;;22.73;;
32611;SDS011;19030;49.478;8.986;2024-03-08T06:20:47;38.90;;;21.35;;
32611;SDS011;19030;49.478;8.986;2024-03-08T06:22:48;36.08;;;20.73;;
32611;SDS011;19030;49.478;8.986;2024-03-08T06:24:49;38.40;;;21.02;;
32611;SDS011;19030;49.478;8.986;2024-03-08T06:26:51;37.97;;;21.50;;
32611;SDS011;19030;49.478;8.986;2024-03-08T06:28:53;39.25;;;21.17;;
32611;SDS011;19030;49.478;8.986;2024-03-08T06:30:54;43.03;;;22.80;;
32611;SDS011;19030;49.478;8.986;2024-03-08T06:32:55;37.03;;;20.70;;
32611;SDS011;19030;49.478;8.986;2024-03-08T06:34:55;42.88;;;21.30;;
32611;SDS011;19030;49.478;8.986;2024-03-08T06:36:56;37.22;;;20.33;;
32611;SDS011;19030;49.478;8.986;2024-03-08T06:39:00;38.65;;;21.58;;
32611;SDS011;19030;49.478;8.986;2024-03-08T06:41:02;37.88;;;19.65;;
32611;SDS011;19030;49.478;8.986;2024-03-08T06:43:06;39.63;;;20.17;;
32611;SDS011;19030;49.478;8.986;2024-03-08T06:45:07;39.38;;;19.35;;
32611;SDS011;19030;49.478;8.986;2024-03-08T06:47:09;40.28;;;20.02;;
32611;SDS011;19030;49.478;8.986;2024-03-08T06:49:10;41.08;;;21.52;;
32611;SDS011;19030;49.478;8.986;2024-03-08T06:51:11;36.17;;;20.42;;
32611;SDS011;19030;49.478;8.986;2024-03-08T06:53:12;34.67;;;20.52;;
32611;SDS011;19030;49.478;8.986;2024-03-08T06:55:13;35.72;;;19.67;;
32611;SDS011;19030;49.478;8.986;2024-03-08T06:57:14;39.60;;;20.30;;
32611;SDS011;19030;49.478;8.986;2024-03-08T06:59:16;36.38;;;19.42;;
32611;SDS011;19030;49.478;8.986;2024-03-08T07:01:18;36.55;;;18.92;;
32611;SDS011;19030;49.478;8.986;2024-03-08T07:03:18;38.22;;;20.73;;
32611;SDS011;19030;49.478;8.986;2024-03-08T07:05:19;36.53;;;20.45;;
32611;SDS011;19030;49.478;8.986;2024-03-08T07:07:20;36.30;;;19.33;;
32611;SDS011;19030;49.478;8.986;2024-03-08T07:09:20;37.70;;;19.50;;
32611;SDS011;19030;49.478;8.986;2024-03-08T07:11:21;33.40;;;19.48;;
32611;SDS011;19030;49.478;8.986;2024-03-08T07:13:21;33.63;;;18.55;;
32611;SDS011;19030;49.478;8.986;2024-03-08T07:15:22;32.90;;;18.73;;
32611;SDS011;19030;49.478;8.986;2024-03-08T07:17:23;31.45;;;19.17;;
32611;SDS011;19030;49.478;8.986;2024-03-08T07:19:24;31.65;;;18.50;;
32611;SDS011;19030;49.478;8.986;2024-03-08T07:21:25;39.17;;;21.38;;
32611;SDS011;19030;49.478;8.986;2024-03-08T07:23:26;31.83;;;18.55;;
32611;SDS011;19030;49.478;8.986;2024-03-08T07:25:48;31.65;;;17.63;;
32611;SDS011;19030;49.478;8.986;2024-03-08T07:29:53;32.67;;;19.27;;
32611;SDS011;19030;49.478;8.986;2024-03-08T07:31:55;32.15;;;19.52;;
32611;SDS011;19030;49.478;8.986;2024-03-08T07:34:02;31.67;;;19.00;;
32611;SDS011;19030;49.478;8.986;2024-03-08T07:36:03;28.95;;;17.42;;
32611;SDS011;19030;49.478;8.986;2024-03-08T07:38:05;31.90;;;18.88;;
32611;SDS011;19030;49.478;8.986;2024-03-08T07:40:06;30.67;;;18.75;;
32611;SDS011;19030;49.478;8.986;2024-03-08T07:42:07;31.48;;;18.02;;
32611;SDS011;19030;49.478;8.986;2024-03-08T07:44:08;32.45;;;18.60;;
32611;SDS011;19030;49.478;8.986;2024-03-08T07:46:12;30.95;;;17.60;;
32611;SDS011;19030;49.478;8.986;2024-03-08T07:48:13;29.98;;;18.50;;
32611;SDS011;19030;49.478;8.986;2024-03-08T07:50:13;30.45;;;17.92;;
32611;SDS011;19030;49.478;8.986;2024-03-08T07:52:16;32.47;;;18.15;;
32611;SDS011;19030;49.478;8.986;2024-03-08T07:54:18;32.95;;;17.88;;
32611;SDS011;19030;49.478;8.986;2024-03-08T07:56:18;30.45;;;18.00;;
32611;SDS011;19030;49.478;8.986;2024-03-08T07:58:21;34.88;;;18.92;;
32611;SDS011;19030;49.478;8.986;2024-03-08T08:00:21;31.17;;;18.40;;
32611;SDS011;19030;49.478;8.986;2024-03-08T08:02:22;30.20;;;18.42;;
32611;SDS011;19030;49.478;8.986;2024-03-08T08:04:22;32.55;;;18.42;;
32611;SDS011;19030;49.478;8.986;2024-03-08T08:06:24;32.00;;;17.67;;
32611;SDS011;19030;49.478;8.986;2024-03-08T08:08:25;37.50;;;18.77;;
32611;SDS011;19030;49.478;8.986;2024-03-08T08:10:26;31.73;;;18.58;;
32611;SDS011;19030;49.478;8.986;2024-03-08T08:12:28;33.95;;;19.10;;
32611;SDS011;19030;49.478;8.986;2024-03-08T08:14:29;32.75;;;17.98;;
32611;SDS011;19030;49.478;8.986;2024-03-08T08:16:30;30.52;;;18.45;;
32611;SDS011;19030;49.478;8.986;2024-03-08T08:18:32;28.70;;;17.90;;
32611;SDS011;19030;49.478;8.986;2024-03-08T08:20:33;31.40;;;18.73;;
32611;SDS011;19030;49.478;8.986;2024-03-08T08:22:33;31.42;;;18.50;;
32611;SDS011;19030;49.478;8.986;2024-03-08T08:24:34;30.88;;;18.35;;
32611;SDS011;19030;49.478;8.986;2024-03-08T08:26:36;31.25;;;18.55;;
32611;SDS011;19030;49.478;8.986;2024-03-08T08:28:37;29.85;;;18.75;;
32611;SDS011;19030;49.478;8.986;2024-03-08T08:30:38;30.63;;;18.13;;
32611;SDS011;19030;49.478;8.986;2024-03-08T08:32:38;32.17;;;18.27;;
32611;SDS011;19030;49.478;8.986;2024-03-08T08:34:39;32.40;;;18.92;;
32611;SDS011;19030;49.478;8.986;2024-03-08T08:36:41;28.10;;;18.23;;
32611;SDS011;19030;49.478;8.986;2024-03-08T08:38:42;30.05;;;17.42;;
32611;SDS011;19030;49.478;8.986;2024-03-08T08:40:43;29.10;;;18.77;;
32611;SDS011;19030;49.478;8.986;2024-03-08T08:42:43;30.38;;;19.52;;
32611;SDS011;19030;49.478;8.986;2024-03-08T08:44:45;29.83;;;17.77;;
32611;SDS011;19030;49.478;8.986;2024-03-08T08:46:46;30.55;;;18.77;;
32611;SDS011;19030;49.478;8.986;2024-03-08T08:48:47;28.83;;;18.25;;
32611;SDS011;19030;49.478;8.986;2024-03-08T08:50:47;28.50;;;17.63;;
32611;SDS011;19030;49.478;8.986;2024-03-08T08:52:48;28.83;;;18.33;;
32611;SDS011;19030;49.478;8.986;2024-03-08T08:54:49;29.13;;;17.80;;
32611;SDS011;19030;49.478;8.986;2024-03-08T08:56:51;29.02;;;18.35;;
32611;SDS011;19030;49.478;8.986;2024-03-08T08:58:54;30.17;;;17.70;;
32611;SDS011;19030;49.478;8.986;2024-03-08T09:00:54;29.20;;;18.13;;
32611;SDS011;19030;49.478;8.986;2024-03-08T09:02:55;29.40;;;18.45;;
32611;SDS011;19030;49.478;8.986;2024-03-08T09:04:57;28.45;;;18.02;;
32611;SDS011;19030;49.478;8.986;2024-03-08T09:06:58;27.30;;;17.92;;
32611;SDS011;19030;49.478;8.986;2024-03-08T09:08:58;27.88;;;17.75;;
32611;SDS011;19030;49.478;8.986;2024-03-08T09:10:59;29.08;;;17.98;;
32611;SDS011;19030;49.478;8.986;2024-03-08T09:12:59;31.52;;;18.58;;
32611;SDS011;19030;49.478;8.986;2024-03-08T09:15:00;28.35;;;19.45;;
32611;SDS011;19030;49.478;8.986;2024-03-08T09:17:00;28.30;;;16.92;;
32611;SDS011;19030;49.478;8.986;2024-03-08T09:19:01;29.55;;;18.42;;
32611;SDS011;19030;49.478;8.986;2024-03-08T09:21:02;25.98;;;16.58;;
32611;SDS011;19030;49.478;8.986;2024-03-08T09:23:03;29.00;;;18.42;;
32611;SDS011;19030;49.478;8.986;2024-03-08T09:25:04;28.17;;;17.58;;
32611;SDS011;19030;49.478;8.986;2024-03-08T09:27:05;25.83;;;18.25;;
32611;SDS011;19030;49.478;8.986;2024-03-08T09:29:06;28.17;;;17.75;;
32611;SDS011;19030;49.478;8.986;2024-03-08T09:31:07;30.02;;;18.15;;
32611;SDS011;19030;49.478;8.986;2024-03-08T09:33:07;26.90;;;17.85;;
32611;SDS011;19030;49.478;8.986;2024-03-08T09:35:09;26.70;;;17.83;;
32611;SDS011;19030;49.478;8.986;2024-03-08T09:37:11;28.25;;;18.13;;
32611;SDS011;19030;49.478;8.986;2024-03-08T09:39:12;31.98;;;21.02;;
32611;SDS011;19030;49.478;8.986;2024-03-08T09:41:16;29.60;;;20.33;;
32611;SDS011;19030;49.478;8.986;2024-03-08T09:43:17;26.17;;;20.27;;
32611;SDS011;19030;49.478;8.986;2024-03-08T09:45:19;28.05;;;18.13;;
32611;SDS011;19030;49.478;8.986;2024-03-08T09:47:24;25.92;;;16.58;;
32611;SDS011;19030;49.478;8.986;2024-03-08T09:49:33;29.98;;;20.08;;
32611;SDS011;19030;49.478;8.986;2024-03-08T09:51:34;31.60;;;24.75;;
32611;SDS011;19030;49.478;8.986;2024-03-08T09:53:40;27.33;;;22.95;;
32611;SDS011;19030;49.478;8.986;2024-03-08T09:55:42;29.23;;;23.20;;
32611;SDS011;19030;49.478;8.986;2024-03-08T09:57:45;26.63;;;18.00;;
32611;SDS011;19030;49.478;8.986;2024-03-08T10:00:07;28.98;;;17.83;;
32611;SDS011;19030;49.478;8.986;2024-03-08T10:02:18;27.85;;;18.20;;
32611;SDS011;19030;49.478;8.986;2024-03-08T10:04:18;25.80;;;17.20;;
32611;SDS011;19030;49.478;8.986;2024-03-08T10:06:22;29.75;;;21.83;;
32611;SDS011;19030;49.478;8.986;2024-03-08T10:08:24;28.08;;;22.05;;
32611;SDS011;19030;49.478;8.986;2024-03-08T10:10:24;30.13;;;24.52;;
32611;SDS011;19030;49.478;8.986;2024-03-08T10:12:25;27.25;;;17.70;;
32611;SDS011;19030;49.478;8.986;2024-03-08T10:14:25;23.83;;;16.60;;
32611;SDS011;19030;49.478;8.986;2024-03-08T10:16:29;26.95;;;17.67;;
32611;SDS011;19030;49.478;8.986;2024-03-08T10:18:30;23.83;;;16.85;;
32611;SDS011;19030;49.478;8.986;2024-03-08T10:20:32;27.15;;;17.55;;
32611;SDS011;19030;49.478;8.986;2024-03-08T10:22:33;23.83;;;16.40;;
32611;SDS011;19030;49.478;8.986;2024-03-08T10:24:35;22.45;;;16.10;;
32611;SDS011;19030;49.478;8.986;2024-03-08T10:26:36;24.45;;;17.25;;
32611;SDS011;19030;49.478;8.986;2024-03-08T10:28:37;25.90;;;18.50;;
32611;SDS011;19030;49.478;8.986;2024-03-08T10:30:38;23.77;;;15.85;;
32611;SDS011;19030;49.478;8.986;2024-03-08T10:32:38;24.75;;;16.95;;
32611;SDS011;19030;49.478;8.986;2024-03-08T10:34:41;24.67;;;15.75;;
32611;SDS011;19030;49.478;8.986;2024-03-08T10:36:42;25.92;;;17.15;;
32611;SDS011;19030;49.478;8.986;2024-03-08T10:38:43;27.60;;;18.05;;
32611;SDS011;19030;49.478;8.986;2024-03-08T10:40:46;22.40;;;16.60;;
32611;SDS011;19030;49.478;8.986;2024-03-08T10:42:56;25.63;;;18.27;;
32611;SDS011;19030;49.478;8.986;2024-03-08T10:49:17;26.13;;;16.70;;
32611;SDS011;19030;49.478;8.986;2024-03-08T10:51:25;22.10;;;15.88;;
32611;SDS011;19030;49.478;8.986;2024-03-08T10:53:28;26.08;;;19.27;;
32611;SDS011;19030;49.478;8.986;2024-03-08T10:55:29;27.60;;;17.15;;
32611;SDS011;19030;49.478;8.986;2024-03-08T10:57:33;23.48;;;16.35;;
32611;SDS011;19030;49.478;8.986;2024-03-08T10:59:35;26.58;;;17.13;;
32611;SDS011;19030;49.478;8.986;2024-03-08T11:01:37;27.00;;;17.35;;
32611;SDS011;19030;49.478;8.986;2024-03-08T11:05:41;27.67;;;16.48;;
32611;SDS011;19030;49.478;8.986;2024-03-08T11:07:45;27.15;;;17.00;;
32611;SDS011;19030;49.478;8.986;2024-03-08T11:09:47;24.60;;;16.90;;
32611;SDS011;19030;49.478;8.986;2024-03-08T11:11:48;23.58;;;15.85;;
32611;SDS011;19030;49.478;8.986;2024-03-08T11:13:49;22.80;;;15.15;;
32611;SDS011;19030;49.478;8.986;2024-03-08T11:15:49;25.83;;;15.77;;
32611;SDS011;19030;49.478;8.986;2024-03-08T11:17:50;23.05;;;15.05;;
32611;SDS011;19030;49.478;8.986;2024-03-08T11:19:51;24.45;;;16.10;;
32611;SDS011;19030;49.478;8.986;2024-03-08T11:22:02;21.60;;;15.00;;
32611;SDS011;19030;49.478;8.986;2024-03-08T11:24:06;23.50;;;15.35;;
32611;SDS011;19030;49.478;8.986;2024-03-08T11:26:18;23.17;;;15.73;;
32611;SDS011;19030;49.478;8.986;2024-03-08T11:28:21;24.52;;;17.45;;
32611;SDS011;19030;49.478;8.986;2024-03-08T11:30:23;23.33;;;15.90;;
32611;SDS011;19030;49.478;8.986;2024-03-08T11:32:29;23.38;;;15.48;;
32611;SDS011;19030;49.478;8.986;2024-03-08T11:34:30;28.30;;;16.95;;
32611;SDS011;19030;49.478;8.986;2024-03-08T11:36:33;24.88;;;17.33;;
32611;SDS011;19030;49.478;8.986;2024-03-08T11:38:40;22.77;;;15.45;;
32611;SDS011;19030;49.478;8.986;2024-03-08T11:40:45;24.85;;;15.07;;
32611;SDS011;19030;49.478;8.986;2024-03-08T11:42:47;24.17;;;15.57;;
32611;SDS011;19030;49.478;8.986;2024-03-08T11:44:48;23.08;;;14.85;;
32611;SDS011;19030;49.478;8.986;2024-03-08T11:46:50;24.10;;;15.45;;
32611;SDS011;19030;49.478;8.986;2024-03-08T11:48:53;21.50;;;14.73;;
32611;SDS011;19030;49.478;8.986;2024-03-08T11:50:59;21.23;;;15.23;;
32611;SDS011;19030;49.478;8.986;2024-03-08T11:53:05;22.50;;;15.50;;
32611;SDS011;19030;49.478;8.986;2024-03-08T11:55:06;23.27;;;15.25;;
32611;SDS011;19030;49.478;8.986;2024-03-08T11:57:07;19.83;;;14.07;;
32611;SDS011;19030;49.478;8.986;2024-03-08T11:59:12;21.45;;;15.00;;